< < Back
Terminal Aerodrome Forecast


Current Version              Previous Versions:   1  2  3  4  5  6  7  8  9  

Terminal Aerodrome Forecast

960
FTUS44 KBMX 270110 AAA
TAFMGM
TAF AMD
KMGM 270110Z 2701/2724 VRB04KT P6SM VCSH SCT060 BKN100
     FM270230 VRB02KT P6SM SCT100 BKN250
     FM271500 30006KT P6SM SCT035 SCT250
     FM271900 30007KT P6SM VCTS BKN050CB=

Latest METAR

946
SAUS80 KWBC 271600 RRB
MTRMGM
METAR KMGM 271553Z VRB04KT 10SM CLR 32/21 A3010 RMK AO2 SLP188
T03170206


USA.gov is the U.S. government's official web portal to all federal, state and local government web resources and services.